sensor_id;sensor_type;location;lat;lon;timestamp;pressure;altitude;pressure_sealevel;temperature;humidity
17060;BME280;8646;49.716;9.266;2024-03-22T00:02:19;101040.22;;;9.41;76.58
17060;BME280;8646;49.716;9.266;2024-03-22T00:05:21;101035.09;;;9.32;76.41
17060;BME280;8646;49.716;9.266;2024-03-22T00:08:23;101032.44;;;9.31;76.74
17060;BME280;8646;49.716;9.266;2024-03-22T00:11:25;101024.72;;;9.15;76.55
17060;BME280;8646;49.716;9.266;2024-03-22T00:14:26;101021.19;;;9.12;76.53
17060;BME280;8646;49.716;9.266;2024-03-22T00:17:27;101026.66;;;9.09;76.70
17060;BME280;8646;49.716;9.266;2024-03-22T00:20:31;101032.34;;;9.00;76.93
17060;BME280;8646;49.716;9.266;2024-03-22T00:23:33;101031.56;;;8.93;76.92
17060;BME280;8646;49.716;9.266;2024-03-22T00:26:35;101009.34;;;8.84;77.43
17060;BME280;8646;49.716;9.266;2024-03-22T00:29:36;101024.88;;;8.74;77.47
17060;BME280;8646;49.716;9.266;2024-03-22T00:32:37;101006.38;;;8.57;77.47
17060;BME280;8646;49.716;9.266;2024-03-22T00:35:38;101022.56;;;8.57;77.48
17060;BME280;8646;49.716;9.266;2024-03-22T00:38:41;100984.41;;;8.35;77.71
17060;BME280;8646;49.716;9.266;2024-03-22T00:41:42;101012.91;;;8.47;77.92
17060;BME280;8646;49.716;9.266;2024-03-22T00:44:44;101015.75;;;8.41;78.12
17060;BME280;8646;49.716;9.266;2024-03-22T00:47:45;100989.09;;;8.26;78.32
17060;BME280;8646;49.716;9.266;2024-03-22T00:50:46;100984.72;;;8.20;78.53
17060;BME280;8646;49.716;9.266;2024-03-22T00:53:48;101003.50;;;8.25;78.53
17060;BME280;8646;49.716;9.266;2024-03-22T00:56:50;100990.09;;;8.20;78.60
17060;BME280;8646;49.716;9.266;2024-03-22T00:59:51;100985.72;;;8.16;78.69
17060;BME280;8646;49.716;9.266;2024-03-22T01:02:53;100984.97;;;8.10;78.86
17060;BME280;8646;49.716;9.266;2024-03-22T01:05:54;100972.50;;;8.04;78.90
17060;BME280;8646;49.716;9.266;2024-03-22T01:08:59;100975.28;;;8.01;79.05
17060;BME280;8646;49.716;9.266;2024-03-22T01:12:00;100958.50;;;7.87;78.92
17060;BME280;8646;49.716;9.266;2024-03-22T01:15:02;100970.00;;;7.95;79.33
17060;BME280;8646;49.716;9.266;2024-03-22T01:18:04;100973.66;;;7.94;79.37
17060;BME280;8646;49.716;9.266;2024-03-22T01:21:06;100965.66;;;7.88;79.29
17060;BME280;8646;49.716;9.266;2024-03-22T01:24:09;100977.47;;;7.82;79.38
17060;BME280;8646;49.716;9.266;2024-03-22T01:27:09;100970.41;;;7.78;79.42
17060;BME280;8646;49.716;9.266;2024-03-22T01:30:11;100974.94;;;7.75;79.79
17060;BME280;8646;49.716;9.266;2024-03-22T01:33:12;100975.06;;;7.70;79.79
17060;BME280;8646;49.716;9.266;2024-03-22T01:36:14;100963.56;;;7.62;79.99
17060;BME280;8646;49.716;9.266;2024-03-22T01:39:16;100967.19;;;7.59;79.90
17060;BME280;8646;49.716;9.266;2024-03-22T01:42:18;100963.66;;;7.54;79.94
17060;BME280;8646;49.716;9.266;2024-03-22T01:45:19;100957.47;;;7.51;79.96
17060;BME280;8646;49.716;9.266;2024-03-22T01:48:21;100930.03;;;7.32;79.95
17060;BME280;8646;49.716;9.266;2024-03-22T01:51:22;100953.16;;;7.42;80.08
17060;BME280;8646;49.716;9.266;2024-03-22T01:54:25;100952.38;;;7.37;80.19
17060;BME280;8646;49.716;9.266;2024-03-22T01:57:27;100947.06;;;7.33;79.94
17060;BME280;8646;49.716;9.266;2024-03-22T02:00:29;100926.69;;;7.19;80.33
17060;BME280;8646;49.716;9.266;2024-03-22T02:03:31;100945.44;;;7.24;80.39
17060;BME280;8646;49.716;9.266;2024-03-22T02:06:32;100941.06;;;7.18;80.22
17060;BME280;8646;49.716;9.266;2024-03-22T02:12:45;100934.94;;;7.10;80.34
17060;BME280;8646;49.716;9.266;2024-03-22T02:15:46;100933.19;;;7.08;80.33
17060;BME280;8646;49.716;9.266;2024-03-22T02:18:47;100930.56;;;7.05;80.65
17060;BME280;8646;49.716;9.266;2024-03-22T02:21:49;100931.53;;;7.01;80.80
17060;BME280;8646;49.716;9.266;2024-03-22T02:24:51;100930.66;;;6.99;80.82
17060;BME280;8646;49.716;9.266;2024-03-22T02:27:53;100921.69;;;6.98;80.97
17060;BME280;8646;49.716;9.266;2024-03-22T02:30:55;100916.41;;;6.95;80.98
17060;BME280;8646;49.716;9.266;2024-03-22T02:33:56;100920.00;;;6.94;81.03
17060;BME280;8646;49.716;9.266;2024-03-22T02:36:57;100917.44;;;6.88;80.85
17060;BME280;8646;49.716;9.266;2024-03-22T02:39:59;100920.16;;;6.85;81.13
17060;BME280;8646;49.716;9.266;2024-03-22T02:43:01;100924.69;;;6.83;81.11
17060;BME280;8646;49.716;9.266;2024-03-22T02:46:02;100923.88;;;6.79;80.92
17060;BME280;8646;49.716;9.266;2024-03-22T02:49:04;100910.44;;;6.78;81.18
17060;BME280;8646;49.716;9.266;2024-03-22T02:52:05;100910.47;;;6.75;81.39
17060;BME280;8646;49.716;9.266;2024-03-22T02:55:08;100908.81;;;6.68;81.54
17060;BME280;8646;49.716;9.266;2024-03-22T02:58:09;100894.56;;;6.63;81.48
17060;BME280;8646;49.716;9.266;2024-03-22T03:01:11;100910.75;;;6.60;81.51
17060;BME280;8646;49.716;9.266;2024-03-22T03:04:12;100908.13;;;6.57;81.20
17060;BME280;8646;49.716;9.266;2024-03-22T03:07:13;100901.03;;;6.51;81.57
17060;BME280;8646;49.716;9.266;2024-03-22T03:10:16;100848.81;;;6.13;81.50
17060;BME280;8646;49.716;9.266;2024-03-22T03:13:17;100902.09;;;6.41;81.66
17060;BME280;8646;49.716;9.266;2024-03-22T03:16:19;100902.16;;;6.39;81.92
17060;BME280;8646;49.716;9.266;2024-03-22T03:19:19;100900.38;;;6.38;81.77
17060;BME280;8646;49.716;9.266;2024-03-22T03:22:21;100856.84;;;6.15;81.74
17060;BME280;8646;49.716;9.266;2024-03-22T03:25:23;100903.72;;;6.51;81.81
17060;BME280;8646;49.716;9.266;2024-03-22T03:28:25;100910.69;;;6.63;82.23
17060;BME280;8646;49.716;9.266;2024-03-22T03:31:26;100909.69;;;6.68;82.01
17060;BME280;8646;49.716;9.266;2024-03-22T03:34:28;100913.16;;;6.75;81.94
17060;BME280;8646;49.716;9.266;2024-03-22T03:37:29;100911.22;;;6.83;81.67
17060;BME280;8646;49.716;9.266;2024-03-22T03:40:32;100906.81;;;6.80;81.80
17060;BME280;8646;49.716;9.266;2024-03-22T03:43:33;100904.06;;;6.82;81.54
17060;BME280;8646;49.716;9.266;2024-03-22T03:46:34;100904.94;;;6.84;81.84
17060;BME280;8646;49.716;9.266;2024-03-22T03:49:35;100894.19;;;6.82;81.84
17060;BME280;8646;49.716;9.266;2024-03-22T03:52:37;100902.25;;;6.84;81.54
17060;BME280;8646;49.716;9.266;2024-03-22T03:55:39;100890.69;;;6.79;81.72
17060;BME280;8646;49.716;9.266;2024-03-22T03:58:41;100882.66;;;6.76;81.63
17060;BME280;8646;49.716;9.266;2024-03-22T04:01:42;100889.06;;;6.69;81.62
17060;BME280;8646;49.716;9.266;2024-03-22T04:04:44;100874.84;;;6.62;81.57
17060;BME280;8646;49.716;9.266;2024-03-22T04:07:47;100874.03;;;6.57;81.77
17060;BME280;8646;49.716;9.266;2024-03-22T04:10:52;100878.59;;;6.54;81.68
17060;BME280;8646;49.716;9.266;2024-03-22T04:13:53;100876.84;;;6.49;81.99
17060;BME280;8646;49.716;9.266;2024-03-22T04:16:55;100886.69;;;6.50;82.11
17060;BME280;8646;49.716;9.266;2024-03-22T04:19:56;100888.47;;;6.51;81.96
17060;BME280;8646;49.716;9.266;2024-03-22T04:22:58;100877.78;;;6.48;82.06
17060;BME280;8646;49.716;9.266;2024-03-22T04:26:01;100877.72;;;6.51;82.03
17060;BME280;8646;49.716;9.266;2024-03-22T04:29:03;100877.66;;;6.56;82.14
17060;BME280;8646;49.716;9.266;2024-03-22T04:32:05;100873.06;;;6.63;82.32
17060;BME280;8646;49.716;9.266;2024-03-22T04:35:06;100868.47;;;6.68;82.20
17060;BME280;8646;49.716;9.266;2024-03-22T04:38:08;100852.16;;;6.77;82.26
17060;BME280;8646;49.716;9.266;2024-03-22T04:41:11;100805.13;;;6.51;82.15
17060;BME280;8646;49.716;9.266;2024-03-22T04:44:13;100857.31;;;6.89;82.06
17060;BME280;8646;49.716;9.266;2024-03-22T04:47:14;100853.63;;;6.93;81.84
17060;BME280;8646;49.716;9.266;2024-03-22T04:50:15;100857.19;;;6.95;81.94
17060;BME280;8646;49.716;9.266;2024-03-22T04:53:17;100859.81;;;6.98;81.57
17060;BME280;8646;49.716;9.266;2024-03-22T04:56:19;100852.63;;;6.99;81.74
17060;BME280;8646;49.716;9.266;2024-03-22T04:59:21;100852.59;;;7.00;81.56
17060;BME280;8646;49.716;9.266;2024-03-22T05:02:22;100847.19;;;7.02;81.79
17060;BME280;8646;49.716;9.266;2024-03-22T05:05:24;100844.50;;;7.02;81.49
17060;BME280;8646;49.716;9.266;2024-03-22T05:08:24;100844.53;;;7.00;81.61
17060;BME280;8646;49.716;9.266;2024-03-22T05:11:27;100842.75;;;6.99;81.31
17060;BME280;8646;49.716;9.266;2024-03-22T05:14:29;100840.97;;;6.98;81.64
17060;BME280;8646;49.716;9.266;2024-03-22T05:17:30;100828.66;;;6.86;81.87
17060;BME280;8646;49.716;9.266;2024-03-22T05:20:33;100838.59;;;6.83;82.41
17060;BME280;8646;49.716;9.266;2024-03-22T05:23:34;100841.25;;;6.84;82.51
17060;BME280;8646;49.716;9.266;2024-03-22T05:26:37;100843.00;;;6.87;82.73
17060;BME280;8646;49.716;9.266;2024-03-22T05:29:38;100842.00;;;6.91;83.26
17060;BME280;8646;49.716;9.266;2024-03-22T05:32:40;100839.41;;;6.88;83.66
17060;BME280;8646;49.716;9.266;2024-03-22T05:35:41;100849.16;;;6.92;83.46
17060;BME280;8646;49.716;9.266;2024-03-22T05:38:42;100841.84;;;7.00;83.44
17060;BME280;8646;49.716;9.266;2024-03-22T05:41:46;100815.22;;;6.86;83.65
17060;BME280;8646;49.716;9.266;2024-03-22T05:44:48;100843.44;;;7.10;83.52
17060;BME280;8646;49.716;9.266;2024-03-22T05:47:48;100847.72;;;7.20;83.53
17060;BME280;8646;49.716;9.266;2024-03-22T05:50:50;100850.09;;;7.34;83.20
17060;BME280;8646;49.716;9.266;2024-03-22T05:53:51;100821.25;;;7.41;83.09
17060;BME280;8646;49.716;9.266;2024-03-22T05:56:54;100822.66;;;7.57;82.63
17060;BME280;8646;49.716;9.266;2024-03-22T05:59:56;100812.59;;;7.66;82.56
17060;BME280;8646;49.716;9.266;2024-03-22T06:02:57;100797.19;;;7.72;82.31
17060;BME280;8646;49.716;9.266;2024-03-22T06:05:59;100751.78;;;7.55;81.88
17060;BME280;8646;49.716;9.266;2024-03-22T06:09:00;100800.28;;;7.93;81.80
17060;BME280;8646;49.716;9.266;2024-03-22T06:12:06;100807.44;;;7.94;81.55
17060;BME280;8646;49.716;9.266;2024-03-22T06:15:07;100804.59;;;8.00;81.64
17060;BME280;8646;49.716;9.266;2024-03-22T06:18:08;100802.66;;;8.05;81.68
17060;BME280;8646;49.716;9.266;2024-03-22T06:21:09;100804.19;;;8.16;82.05
17060;BME280;8646;49.716;9.266;2024-03-22T06:24:11;100796.97;;;8.18;81.99
17060;BME280;8646;49.716;9.266;2024-03-22T06:27:13;100786.56;;;8.38;82.03
17060;BME280;8646;49.716;9.266;2024-03-22T06:30:15;100788.72;;;8.59;81.76
17060;BME280;8646;49.716;9.266;2024-03-22T06:33:16;100779.72;;;8.59;81.85
17060;BME280;8646;49.716;9.266;2024-03-22T06:36:18;100781.44;;;8.61;82.09
17060;BME280;8646;49.716;9.266;2024-03-22T06:39:19;100774.22;;;8.62;82.84
17060;BME280;8646;49.716;9.266;2024-03-22T06:42:22;100779.34;;;8.72;82.67
17060;BME280;8646;49.716;9.266;2024-03-22T06:45:24;100773.94;;;8.72;82.79
17060;BME280;8646;49.716;9.266;2024-03-22T06:48:24;100772.84;;;8.79;82.38
17060;BME280;8646;49.716;9.266;2024-03-22T06:51:26;100773.56;;;8.85;82.19
17060;BME280;8646;49.716;9.266;2024-03-22T06:54:27;100762.53;;;8.94;81.93
17060;BME280;8646;49.716;9.266;2024-03-22T06:57:30;100765.16;;;8.97;81.68
17060;BME280;8646;49.716;9.266;2024-03-22T07:00:31;100761.63;;;8.93;82.01
17060;BME280;8646;49.716;9.266;2024-03-22T07:03:34;100756.38;;;8.89;82.31
17060;BME280;8646;49.716;9.266;2024-03-22T07:06:35;100757.50;;;8.82;82.66
17060;BME280;8646;49.716;9.266;2024-03-22T07:09:37;100750.41;;;8.77;82.87
17060;BME280;8646;49.716;9.266;2024-03-22T07:12:39;100746.69;;;8.82;82.61
17060;BME280;8646;49.716;9.266;2024-03-22T07:15:40;100747.44;;;8.87;82.61
17060;BME280;8646;49.716;9.266;2024-03-22T07:18:41;100745.56;;;8.90;83.20
17060;BME280;8646;49.716;9.266;2024-03-22T07:21:43;100734.78;;;8.89;83.55
17060;BME280;8646;49.716;9.266;2024-03-22T07:24:45;100741.19;;;8.85;83.88
17060;BME280;8646;49.716;9.266;2024-03-22T07:27:47;100738.63;;;8.80;84.15
17060;BME280;8646;49.716;9.266;2024-03-22T07:30:50;100746.78;;;8.78;84.36
17060;BME280;8646;49.716;9.266;2024-03-22T07:33:50;100737.16;;;8.68;84.69
17060;BME280;8646;49.716;9.266;2024-03-22T07:36:54;100732.63;;;8.70;84.98
17060;BME280;8646;49.716;9.266;2024-03-22T07:39:55;100722.41;;;8.82;84.72
17060;BME280;8646;49.716;9.266;2024-03-22T07:42:58;100724.66;;;8.97;84.19
17060;BME280;8646;49.716;9.266;2024-03-22T07:46:00;100723.22;;;9.14;84.02
17060;BME280;8646;49.716;9.266;2024-03-22T07:49:00;100722.53;;;9.36;83.42
17060;BME280;8646;49.716;9.266;2024-03-22T07:52:04;100712.69;;;9.63;82.94
17060;BME280;8646;49.716;9.266;2024-03-22T07:55:06;100710.69;;;9.95;82.23
17060;BME280;8646;49.716;9.266;2024-03-22T07:58:09;100708.25;;;10.39;81.38
17060;BME280;8646;49.716;9.266;2024-03-22T08:01:10;100700.38;;;10.81;80.52
17060;BME280;8646;49.716;9.266;2024-03-22T08:04:11;100700.38;;;11.28;79.73
17060;BME280;8646;49.716;9.266;2024-03-22T08:07:13;100668.31;;;11.61;78.31
17060;BME280;8646;49.716;9.266;2024-03-22T08:10:15;100677.44;;;12.02;77.85
17060;BME280;8646;49.716;9.266;2024-03-22T08:13:18;100670.56;;;12.35;77.33
17060;BME280;8646;49.716;9.266;2024-03-22T08:16:19;100665.78;;;12.60;76.62
17060;BME280;8646;49.716;9.266;2024-03-22T08:19:21;100667.25;;;12.88;75.83
17060;BME280;8646;49.716;9.266;2024-03-22T08:22:22;100661.78;;;13.07;75.35
17060;BME280;8646;49.716;9.266;2024-03-22T08:25:24;100664.19;;;13.14;74.60
17060;BME280;8646;49.716;9.266;2024-03-22T08:28:26;100656.28;;;13.28;74.64
17060;BME280;8646;49.716;9.266;2024-03-22T08:31:28;100654.69;;;13.42;74.50
17060;BME280;8646;49.716;9.266;2024-03-22T08:34:29;100655.06;;;13.53;74.30
17060;BME280;8646;49.716;9.266;2024-03-22T08:37:32;100617.38;;;13.45;73.54
17060;BME280;8646;49.716;9.266;2024-03-22T08:40:33;100646.16;;;13.49;73.08
17060;BME280;8646;49.716;9.266;2024-03-22T08:43:37;100646.41;;;13.45;72.59
17060;BME280;8646;49.716;9.266;2024-03-22T08:46:37;100645.97;;;13.35;72.34
17060;BME280;8646;49.716;9.266;2024-03-22T08:49:39;100640.75;;;13.30;72.61
17060;BME280;8646;49.716;9.266;2024-03-22T08:52:42;100638.84;;;13.32;72.94
17060;BME280;8646;49.716;9.266;2024-03-22T08:55:47;100628.72;;;13.36;73.22
17060;BME280;8646;49.716;9.266;2024-03-22T08:58:49;100623.59;;;13.47;73.38
17060;BME280;8646;49.716;9.266;2024-03-22T09:01:51;100623.63;;;13.64;73.06
17060;BME280;8646;49.716;9.266;2024-03-22T09:04:52;100611.84;;;13.83;72.84
17060;BME280;8646;49.716;9.266;2024-03-22T09:07:54;100604.56;;;14.00;73.01
17060;BME280;8646;49.716;9.266;2024-03-22T09:10:57;100599.00;;;14.19;72.34
17060;BME280;8646;49.716;9.266;2024-03-22T09:14:00;100594.41;;;14.37;72.33
17060;BME280;8646;49.716;9.266;2024-03-22T09:17:01;100582.66;;;14.54;72.18
17060;BME280;8646;49.716;9.266;2024-03-22T09:20:04;100575.31;;;14.71;71.53
17060;BME280;8646;49.716;9.266;2024-03-22T09:23:06;100572.88;;;14.82;71.31
17060;BME280;8646;49.716;9.266;2024-03-22T09:26:08;100556.34;;;14.85;70.69
17060;BME280;8646;49.716;9.266;2024-03-22T09:29:10;100560.59;;;15.07;70.65
17060;BME280;8646;49.716;9.266;2024-03-22T09:32:11;100553.28;;;15.23;70.54
17060;BME280;8646;49.716;9.266;2024-03-22T09:35:12;100550.88;;;15.48;70.26
17060;BME280;8646;49.716;9.266;2024-03-22T09:38:15;100545.91;;;15.71;69.90
17060;BME280;8646;49.716;9.266;2024-03-22T09:41:22;100539.53;;;15.86;69.05
17060;BME280;8646;49.716;9.266;2024-03-22T09:44:27;100532.53;;;15.96;68.53
17060;BME280;8646;49.716;9.266;2024-03-22T09:47:28;100526.41;;;16.07;67.90
17060;BME280;8646;49.716;9.266;2024-03-22T09:50:30;100525.16;;;16.12;67.34
17060;BME280;8646;49.716;9.266;2024-03-22T09:53:32;100530.22;;;16.18;66.50
17060;BME280;8646;49.716;9.266;2024-03-22T09:56:35;100516.78;;;16.29;66.31
17060;BME280;8646;49.716;9.266;2024-03-22T09:59:39;100516.00;;;16.41;65.54
17060;BME280;8646;49.716;9.266;2024-03-22T10:02:41;100510.50;;;16.56;65.24
17060;BME280;8646;49.716;9.266;2024-03-22T10:05:42;100509.56;;;16.71;64.05
17060;BME280;8646;49.716;9.266;2024-03-22T10:08:44;100467.03;;;16.67;63.20
17060;BME280;8646;49.716;9.266;2024-03-22T10:11:45;100498.75;;;17.10;62.32
17060;BME280;8646;49.716;9.266;2024-03-22T10:14:49;100496.31;;;17.33;61.38
17060;BME280;8646;49.716;9.266;2024-03-22T10:17:50;100487.59;;;17.53;60.03
17060;BME280;8646;49.716;9.266;2024-03-22T10:20:59;100486.50;;;17.82;59.22
17060;BME280;8646;49.716;9.266;2024-03-22T10:24:01;100479.97;;;17.98;57.77
17060;BME280;8646;49.716;9.266;2024-03-22T10:27:04;100470.13;;;18.08;56.95
17060;BME280;8646;49.716;9.266;2024-03-22T10:30:08;100470.75;;;18.11;55.11
17060;BME280;8646;49.716;9.266;2024-03-22T10:33:11;100463.75;;;18.20;54.28
17060;BME280;8646;49.716;9.266;2024-03-22T10:36:13;100459.56;;;18.27;52.59
17060;BME280;8646;49.716;9.266;2024-03-22T10:39:16;100436.34;;;18.20;51.92
17060;BME280;8646;49.716;9.266;2024-03-22T10:42:18;100452.75;;;18.33;51.58
17060;BME280;8646;49.716;9.266;2024-03-22T10:45:21;100446.84;;;18.39;51.04
17060;BME280;8646;49.716;9.266;2024-03-22T10:48:28;100442.13;;;18.41;50.68
17060;BME280;8646;49.716;9.266;2024-03-22T10:51:31;100440.81;;;18.46;50.61
17060;BME280;8646;49.716;9.266;2024-03-22T10:54:37;100431.69;;;18.58;50.36
17060;BME280;8646;49.716;9.266;2024-03-22T10:57:40;100430.81;;;18.58;49.73
17060;BME280;8646;49.716;9.266;2024-03-22T11:00:43;100391.25;;;18.49;48.97
17060;BME280;8646;49.716;9.266;2024-03-22T11:03:45;100409.34;;;18.64;48.97
17060;BME280;8646;49.716;9.266;2024-03-22T11:06:47;100395.16;;;18.71;48.87
17060;BME280;8646;49.716;9.266;2024-03-22T11:09:52;100402.81;;;18.78;48.66
17060;BME280;8646;49.716;9.266;2024-03-22T11:12:53;100397.22;;;18.80;48.54
17060;BME280;8646;49.716;9.266;2024-03-22T11:15:56;100392.47;;;18.82;47.96
17060;BME280;8646;49.716;9.266;2024-03-22T11:18:56;100381.59;;;18.93;48.46
17060;BME280;8646;49.716;9.266;2024-03-22T11:21:58;100373.53;;;19.02;48.00
17060;BME280;8646;49.716;9.266;2024-03-22T11:24:59;100373.34;;;19.17;47.59
17060;BME280;8646;49.716;9.266;2024-03-22T11:28:02;100361.16;;;19.32;47.73
17060;BME280;8646;49.716;9.266;2024-03-22T11:31:04;100348.09;;;19.47;47.03
17060;BME280;8646;49.716;9.266;2024-03-22T11:34:06;100348.19;;;19.69;46.83
17060;BME280;8646;49.716;9.266;2024-03-22T11:37:07;100292.03;;;19.62;46.84
17060;BME280;8646;49.716;9.266;2024-03-22T11:40:11;100341.22;;;19.98;46.99
17060;BME280;8646;49.716;9.266;2024-03-22T11:43:14;100330.72;;;20.03;46.59
17060;BME280;8646;49.716;9.266;2024-03-22T11:46:18;100334.50;;;20.02;46.32
17060;BME280;8646;49.716;9.266;2024-03-22T11:49:21;100337.72;;;19.96;45.94
17060;BME280;8646;49.716;9.266;2024-03-22T11:52:24;100324.97;;;19.95;45.91
17060;BME280;8646;49.716;9.266;2024-03-22T11:55:27;100320.50;;;19.94;45.45
17060;BME280;8646;49.716;9.266;2024-03-22T11:58:29;100320.97;;;19.88;44.33
17060;BME280;8646;49.716;9.266;2024-03-22T12:01:31;100309.50;;;19.72;43.38
17060;BME280;8646;49.716;9.266;2024-03-22T12:04:40;100270.75;;;19.41;44.12
17060;BME280;8646;49.716;9.266;2024-03-22T12:07:41;100300.28;;;19.62;44.32
17060;BME280;8646;49.716;9.266;2024-03-22T12:10:43;100294.53;;;19.54;44.35
17060;BME280;8646;49.716;9.266;2024-03-22T12:13:46;100302.47;;;19.46;44.35
17060;BME280;8646;49.716;9.266;2024-03-22T12:16:48;100286.47;;;19.39;43.94
17060;BME280;8646;49.716;9.266;2024-03-22T12:19:50;100280.25;;;19.37;43.99
17060;BME280;8646;49.716;9.266;2024-03-22T12:22:51;100273.03;;;19.48;43.94
17060;BME280;8646;49.716;9.266;2024-03-22T12:25:53;100274.28;;;19.55;43.96
17060;BME280;8646;49.716;9.266;2024-03-22T12:28:57;100201.44;;;19.28;44.09
17060;BME280;8646;49.716;9.266;2024-03-22T12:32:00;100218.41;;;19.56;43.82
17060;BME280;8646;49.716;9.266;2024-03-22T12:35:04;100255.06;;;19.88;43.29
17060;BME280;8646;49.716;9.266;2024-03-22T12:38:06;100248.19;;;20.05;43.10
17060;BME280;8646;49.716;9.266;2024-03-22T12:41:07;100252.56;;;20.18;43.05
17060;BME280;8646;49.716;9.266;2024-03-22T12:44:09;100250.38;;;20.33;42.96
17060;BME280;8646;49.716;9.266;2024-03-22T12:47:11;100247.56;;;20.35;41.97
17060;BME280;8646;49.716;9.266;2024-03-22T12:50:13;100248.41;;;20.35;41.80
17060;BME280;8646;49.716;9.266;2024-03-22T12:53:16;100239.31;;;20.35;40.76
17060;BME280;8646;49.716;9.266;2024-03-22T12:56:17;100233.91;;;20.33;40.44
17060;BME280;8646;49.716;9.266;2024-03-22T12:59:19;100224.91;;;20.31;40.49
17060;BME280;8646;49.716;9.266;2024-03-22T13:02:21;100226.03;;;20.29;40.05
17060;BME280;8646;49.716;9.266;2024-03-22T13:05:23;100218.56;;;20.19;40.22
17060;BME280;8646;49.716;9.266;2024-03-22T13:08:25;100207.72;;;20.18;40.09
17060;BME280;8646;49.716;9.266;2024-03-22T13:11:27;100170.53;;;20.03;40.32
17060;BME280;8646;49.716;9.266;2024-03-22T13:14:28;100205.47;;;20.34;40.63
17060;BME280;8646;49.716;9.266;2024-03-22T13:17:31;100198.78;;;20.48;40.69
17060;BME280;8646;49.716;9.266;2024-03-22T13:20:32;100201.13;;;20.52;40.76
17060;BME280;8646;49.716;9.266;2024-03-22T13:23:34;100195.41;;;20.44;40.19
17060;BME280;8646;49.716;9.266;2024-03-22T13:26:36;100179.91;;;20.43;40.52
17060;BME280;8646;49.716;9.266;2024-03-22T13:29:38;100180.44;;;20.37;40.75
17060;BME280;8646;49.716;9.266;2024-03-22T13:32:40;100181.81;;;20.32;40.21
17060;BME280;8646;49.716;9.266;2024-03-22T13:35:45;100178.59;;;20.27;40.04
17060;BME280;8646;49.716;9.266;2024-03-22T13:38:46;100173.81;;;20.29;39.09
17060;BME280;8646;49.716;9.266;2024-03-22T13:41:49;100171.84;;;20.19;39.43
17060;BME280;8646;49.716;9.266;2024-03-22T13:44:51;100169.50;;;20.15;39.52
17060;BME280;8646;49.716;9.266;2024-03-22T13:47:55;100157.19;;;20.09;39.42
17060;BME280;8646;49.716;9.266;2024-03-22T13:50:57;100154.56;;;20.08;39.55
17060;BME280;8646;49.716;9.266;2024-03-22T13:53:59;100154.44;;;20.09;39.63
17060;BME280;8646;49.716;9.266;2024-03-22T13:57:00;100149.44;;;20.03;39.90
17060;BME280;8646;49.716;9.266;2024-03-22T14:00:03;100144.22;;;20.00;39.49
17060;BME280;8646;49.716;9.266;2024-03-22T14:03:08;100143.59;;;19.97;39.83
17060;BME280;8646;49.716;9.266;2024-03-22T14:06:10;100138.97;;;19.97;39.66
17060;BME280;8646;49.716;9.266;2024-03-22T14:09:11;100129.75;;;19.98;40.17
17060;BME280;8646;49.716;9.266;2024-03-22T14:12:13;100125.13;;;19.99;40.00
17060;BME280;8646;49.716;9.266;2024-03-22T14:15:14;100125.78;;;19.91;40.53
17060;BME280;8646;49.716;9.266;2024-03-22T14:18:18;100124.16;;;19.89;40.50
17060;BME280;8646;49.716;9.266;2024-03-22T14:21:19;100113.78;;;19.92;40.85
17060;BME280;8646;49.716;9.266;2024-03-22T14:24:21;100121.03;;;19.93;40.88
17060;BME280;8646;49.716;9.266;2024-03-22T14:27:21;100108.88;;;19.96;41.25
17060;BME280;8646;49.716;9.266;2024-03-22T14:30:23;100107.53;;;20.01;41.11
17060;BME280;8646;49.716;9.266;2024-03-22T14:33:27;100104.78;;;20.01;41.07
17060;BME280;8646;49.716;9.266;2024-03-22T14:36:27;100101.75;;;20.04;41.28
17060;BME280;8646;49.716;9.266;2024-03-22T14:39:29;100099.13;;;20.03;41.51
17060;BME280;8646;49.716;9.266;2024-03-22T14:42:31;100100.66;;;19.96;41.37
17060;BME280;8646;49.716;9.266;2024-03-22T14:45:32;100094.94;;;19.88;41.62
17060;BME280;8646;49.716;9.266;2024-03-22T14:48:35;100092.84;;;19.80;41.83
17060;BME280;8646;49.716;9.266;2024-03-22T14:51:36;100079.75;;;19.72;41.60
17060;BME280;8646;49.716;9.266;2024-03-22T14:54:38;100084.28;;;19.62;41.97
17060;BME280;8646;49.716;9.266;2024-03-22T14:57:39;100075.19;;;19.62;42.26
17060;BME280;8646;49.716;9.266;2024-03-22T15:00:41;100066.69;;;19.65;42.18
17060;BME280;8646;49.716;9.266;2024-03-22T15:03:44;100063.81;;;19.66;42.62
17060;BME280;8646;49.716;9.266;2024-03-22T15:06:46;100058.09;;;19.69;42.70
17060;BME280;8646;49.716;9.266;2024-03-22T15:09:49;100047.22;;;19.68;42.78
17060;BME280;8646;49.716;9.266;2024-03-22T15:12:51;100032.63;;;19.67;43.08
17060;BME280;8646;49.716;9.266;2024-03-22T15:15:52;100042.72;;;19.67;43.26
17060;BME280;8646;49.716;9.266;2024-03-22T15:18:55;100029.13;;;19.65;43.19
17060;BME280;8646;49.716;9.266;2024-03-22T15:21:56;100030.66;;;19.58;43.51
17060;BME280;8646;49.716;9.266;2024-03-22T15:24:58;100020.09;;;19.54;43.81
17060;BME280;8646;49.716;9.266;2024-03-22T15:27:59;100016.84;;;19.49;44.11
17060;BME280;8646;49.716;9.266;2024-03-22T15:31:01;100000.13;;;19.40;44.01
17060;BME280;8646;49.716;9.266;2024-03-22T15:34:03;100007.88;;;19.35;44.28
17060;BME280;8646;49.716;9.266;2024-03-22T15:37:06;100007.66;;;19.27;44.50
17060;BME280;8646;49.716;9.266;2024-03-22T15:40:08;100002.03;;;19.18;44.90
17060;BME280;8646;49.716;9.266;2024-03-22T15:43:09;100003.31;;;19.02;45.05
17060;BME280;8646;49.716;9.266;2024-03-22T15:46:12;99995.84;;;18.93;45.20
17060;BME280;8646;49.716;9.266;2024-03-22T15:49:14;99992.13;;;18.83;45.36
17060;BME280;8646;49.716;9.266;2024-03-22T15:52:15;99984.28;;;18.79;45.65
17060;BME280;8646;49.716;9.266;2024-03-22T15:55:16;99980.44;;;18.70;46.12
17060;BME280;8646;49.716;9.266;2024-03-22T15:58:18;99979.06;;;18.64;46.30
17060;BME280;8646;49.716;9.266;2024-03-22T16:01:19;99989.78;;;18.56;46.39
17060;BME280;8646;49.716;9.266;2024-03-22T16:04:22;99984.50;;;18.53;46.69
17060;BME280;8646;49.716;9.266;2024-03-22T16:07:23;99978.88;;;18.44;46.91
17060;BME280;8646;49.716;9.266;2024-03-22T16:10:24;99972.91;;;18.39;46.94
17060;BME280;8646;49.716;9.266;2024-03-22T16:13:26;99970.53;;;18.34;47.06